createdAt,value
2018-11-28T00:00:22.550Z,17.00
2018-11-28T00:01:21.657Z,17.00
2018-11-28T00:02:21.688Z,17.40
2018-11-28T00:03:21.781Z,17.20
2018-11-28T00:04:21.621Z,16.90
2018-11-28T00:05:23.371Z,17.00
2018-11-28T00:06:21.762Z,17.50
2018-11-28T00:07:21.612Z,16.40
2018-11-28T00:08:21.662Z,16.50
2018-11-28T00:09:21.669Z,17.80
2018-11-28T00:10:21.670Z,17.40
2018-11-28T00:11:21.698Z,17.40
2018-11-28T00:12:21.571Z,16.60
2018-11-28T00:13:21.626Z,17.50
2018-11-28T00:14:21.636Z,17.20
2018-11-28T00:15:21.516Z,16.70
2018-11-28T00:16:21.641Z,17.10
2018-11-28T00:17:21.470Z,16.90
2018-11-28T00:18:21.463Z,16.90
2018-11-28T00:19:21.459Z,18.10
2018-11-28T00:20:21.535Z,16.30
2018-11-28T00:21:21.447Z,16.70
2018-11-28T00:22:21.723Z,16.50
2018-11-28T00:23:21.455Z,17.70
2018-11-28T00:24:21.409Z,16.80
2018-11-28T00:25:21.412Z,17.70
2018-11-28T00:26:21.546Z,16.90
2018-11-28T00:27:21.404Z,17.10
2018-11-28T00:28:21.633Z,17.50
2018-11-28T00:29:21.365Z,17.10
2018-11-28T00:30:21.356Z,17.30
2018-11-28T00:31:21.337Z,17.10
2018-11-28T00:32:22.470Z,16.70
2018-11-28T00:33:21.413Z,16.40
2018-11-28T00:34:21.367Z,16.70
2018-11-28T00:35:21.440Z,16.80
2018-11-28T00:36:21.291Z,18.00
2018-11-28T00:37:21.530Z,17.50
2018-11-28T00:38:21.267Z,16.60
2018-11-28T00:39:21.309Z,17.40
2018-11-28T00:40:21.295Z,16.60
2018-11-28T00:41:21.204Z,16.70
2018-11-28T00:42:21.718Z,16.90
2018-11-28T00:43:21.206Z,17.00
2018-11-28T00:44:21.241Z,17.70
2018-11-28T00:45:23.001Z,18.30
2018-11-28T00:46:21.165Z,18.80
2018-11-28T00:47:21.260Z,18.20
2018-11-28T00:48:21.150Z,17.60
2018-11-28T00:49:21.220Z,18.40
2018-11-28T00:50:22.751Z,18.90
2018-11-28T00:51:21.098Z,18.70
2018-11-28T00:52:21.124Z,17.70
2018-11-28T00:53:21.105Z,18.20
2018-11-28T00:54:21.083Z,17.40
2018-11-28T00:55:21.092Z,18.90
2018-11-28T00:56:21.065Z,18.80
2018-11-28T00:57:21.144Z,18.50
2018-11-28T00:58:21.155Z,17.90
2018-11-28T00:59:21.143Z,18.30
2018-11-28T01:00:21.048Z,18.60
2018-11-28T01:01:21.404Z,17.90
2018-11-28T01:02:20.993Z,18.50
2018-11-28T01:03:20.979Z,18.60
2018-11-28T01:04:21.096Z,18.90
2018-11-28T01:05:20.990Z,18.10
2018-11-28T01:06:21.111Z,18.70
2018-11-28T01:07:20.949Z,18.10
2018-11-28T01:08:20.965Z,19.30
2018-11-28T01:09:20.936Z,19.10
2018-11-28T01:10:20.967Z,19.00
2018-11-28T01:11:20.945Z,18.80
2018-11-28T01:12:21.013Z,18.80
2018-11-28T01:13:20.893Z,19.20
2018-11-28T01:14:22.432Z,19.00
2018-11-28T01:15:20.848Z,19.50
2018-11-28T01:16:20.869Z,19.90
2018-11-28T01:17:20.933Z,19.10
2018-11-28T01:18:20.819Z,19.10
2018-11-28T01:19:20.871Z,18.90
2018-11-28T01:20:20.870Z,19.70
2018-11-28T01:21:20.779Z,19.30
2018-11-28T01:22:20.781Z,19.40
2018-11-28T01:23:20.758Z,19.80
2018-11-28T01:24:20.788Z,19.30
2018-11-28T01:25:20.828Z,18.90
2018-11-28T01:26:20.757Z,19.50
2018-11-28T01:27:20.836Z,19.80
2018-11-28T01:28:20.804Z,19.00
2018-11-28T01:29:20.731Z,19.00
2018-11-28T01:30:20.708Z,19.10
2018-11-28T01:31:20.683Z,19.20
2018-11-28T01:32:20.688Z,19.90
2018-11-28T01:33:20.701Z,19.20
2018-11-28T01:34:20.755Z,19.60
2018-11-28T01:35:20.648Z,19.40
2018-11-28T01:36:20.734Z,20.10
2018-11-28T01:37:20.687Z,19.70
2018-11-28T01:38:20.743Z,20.20
2018-11-28T01:39:20.662Z,20.00
2018-11-28T01:40:20.649Z,21.20
2018-11-28T01:41:22.625Z,21.00
2018-11-28T01:42:20.553Z,21.00
2018-11-28T01:43:20.593Z,21.10
2018-11-28T01:44:21.002Z,21.20
2018-11-28T01:45:20.539Z,22.20
2018-11-28T01:46:20.517Z,20.90
2018-11-28T01:47:20.549Z,21.80
2018-11-28T01:48:20.523Z,21.40
2018-11-28T01:49:20.520Z,21.40
2018-11-28T01:50:20.615Z,21.50
2018-11-28T01:51:20.462Z,21.20
2018-11-28T01:52:20.497Z,21.00
2018-11-28T01:53:20.511Z,21.40
2018-11-28T01:54:20.528Z,21.50
2018-11-28T01:55:20.531Z,21.10
2018-11-28T01:56:20.429Z,21.00
2018-11-28T01:57:20.435Z,21.00
2018-11-28T01:58:20.380Z,21.20
2018-11-28T01:59:22.024Z,20.30
2018-11-28T02:00:20.536Z,19.80
2018-11-28T02:01:20.357Z,19.00
2018-11-28T02:02:20.382Z,20.00
2018-11-28T02:03:20.438Z,21.10
2018-11-28T02:04:20.525Z,20.00
2018-11-28T02:05:20.311Z,19.70
2018-11-28T02:06:20.379Z,19.30
2018-11-28T02:07:20.329Z,18.40
2018-11-28T02:08:20.513Z,19.50
2018-11-28T02:09:20.310Z,19.50
2018-11-28T02:10:20.399Z,19.80
2018-11-28T02:11:20.241Z,19.20
2018-11-28T02:12:20.275Z,18.40
2018-11-28T02:13:20.229Z,18.60
2018-11-28T02:14:20.332Z,18.80
2018-11-28T02:15:20.239Z,19.70
2018-11-28T02:16:20.314Z,18.60
2018-11-28T02:17:20.248Z,18.50
2018-11-28T02:18:20.177Z,18.30
2018-11-28T02:19:20.154Z,19.00
2018-11-28T02:20:20.369Z,19.40
2018-11-28T02:21:20.158Z,18.40
2018-11-28T02:22:20.138Z,19.30
2018-11-28T02:23:20.398Z,19.10
2018-11-28T02:24:20.185Z,18.80
2018-11-28T02:25:20.279Z,19.80
2018-11-28T02:26:20.106Z,19.10
2018-11-28T02:27:20.143Z,18.70
2018-11-28T02:28:20.122Z,18.30
2018-11-28T02:29:20.129Z,18.60
2018-11-28T02:30:20.074Z,18.80
2018-11-28T02:31:20.034Z,18.60
2018-11-28T02:32:20.037Z,18.60
2018-11-28T02:33:20.008Z,19.10
2018-11-28T02:34:20.104Z,19.00
2018-11-28T02:35:20.016Z,19.10
2018-11-28T02:36:19.994Z,18.90
2018-11-28T02:37:19.993Z,19.00
2018-11-28T02:38:19.981Z,19.70
2018-11-28T02:39:19.995Z,19.40
2018-11-28T02:40:19.973Z,18.80
2018-11-28T02:41:20.177Z,20.10
2018-11-28T02:42:19.927Z,19.60
2018-11-28T02:43:20.003Z,19.70
2018-11-28T02:44:19.925Z,19.50
2018-11-28T02:45:19.954Z,20.30
2018-11-28T02:46:19.956Z,20.30
2018-11-28T02:47:19.861Z,20.00
2018-11-28T02:48:19.845Z,19.80
2018-11-28T02:49:19.967Z,20.10
2018-11-28T02:50:19.976Z,19.70
2018-11-28T02:51:19.888Z,19.50
2018-11-28T02:52:20.785Z,20.10
2018-11-28T02:53:19.854Z,20.20
2018-11-28T02:54:19.889Z,20.40
2018-11-28T02:55:19.867Z,20.70
2018-11-28T02:56:19.861Z,21.40
2018-11-28T02:57:19.845Z,21.50
2018-11-28T02:58:19.785Z,21.30
2018-11-28T02:59:19.732Z,20.40
2018-11-28T03:00:19.736Z,20.40
2018-11-28T03:01:19.919Z,21.10
2018-11-28T03:02:19.997Z,21.60
2018-11-28T03:03:19.682Z,20.80
2018-11-28T03:04:20.757Z,20.80
2018-11-28T03:05:19.676Z,20.80
2018-11-28T03:06:19.715Z,21.10
2018-11-28T03:07:20.018Z,21.40
2018-11-28T03:08:19.637Z,20.50
2018-11-28T03:09:19.873Z,20.10
2018-11-28T03:10:19.608Z,20.70
2018-11-28T03:11:19.601Z,21.00
2018-11-28T03:12:19.695Z,20.60
2018-11-28T03:13:19.610Z,21.50
2018-11-28T03:14:20.419Z,20.80
2018-11-28T03:15:19.619Z,21.10
2018-11-28T03:16:19.546Z,20.30
2018-11-28T03:17:19.530Z,21.40
2018-11-28T03:18:19.723Z,23.00
2018-11-28T03:19:19.498Z,21.80
2018-11-28T03:20:19.721Z,21.60
2018-11-28T03:21:19.637Z,22.10
2018-11-28T03:22:19.469Z,22.70
2018-11-28T03:23:19.543Z,22.80
2018-11-28T03:24:19.521Z,22.40
2018-11-28T03:25:19.776Z,21.30
2018-11-28T03:26:20.846Z,22.40
2018-11-28T03:27:19.423Z,21.90
2018-11-28T03:28:19.479Z,22.90
2018-11-28T03:29:19.590Z,23.10
2018-11-28T03:30:19.490Z,22.80
2018-11-28T03:31:19.391Z,22.90
2018-11-28T03:32:19.460Z,22.90
2018-11-28T03:33:19.535Z,22.40
2018-11-28T03:34:19.532Z,23.00
2018-11-28T03:35:19.337Z,23.10
2018-11-28T03:36:19.467Z,22.10
2018-11-28T03:37:19.408Z,25.20
2018-11-28T03:38:19.617Z,24.20
2018-11-28T03:39:19.680Z,23.00
2018-11-28T03:40:19.448Z,23.70
2018-11-28T03:41:19.279Z,24.50
2018-11-28T03:42:19.266Z,25.40
2018-11-28T03:43:19.378Z,23.60
2018-11-28T03:44:19.236Z,23.40
2018-11-28T03:45:19.576Z,23.60
2018-11-28T03:46:19.889Z,23.90
2018-11-28T03:47:19.218Z,23.50
2018-11-28T03:48:19.224Z,23.40
2018-11-28T03:49:19.255Z,24.00
2018-11-28T03:50:19.178Z,23.30
2018-11-28T03:51:19.347Z,24.40
2018-11-28T03:52:19.165Z,23.50
2018-11-28T03:53:19.220Z,23.80
2018-11-28T03:54:19.185Z,24.20
2018-11-28T03:55:19.234Z,22.50
2018-11-28T03:56:19.157Z,23.50
2018-11-28T03:57:19.103Z,21.90
2018-11-28T03:58:19.181Z,22.30
2018-11-28T03:59:19.085Z,22.60
2018-11-28T04:00:19.164Z,20.90
2018-11-28T04:01:19.212Z,21.90
2018-11-28T04:02:19.263Z,22.30
2018-11-28T04:03:19.199Z,22.10
2018-11-28T04:04:19.182Z,21.80
2018-11-28T04:05:19.589Z,21.90
2018-11-28T04:06:19.077Z,22.70
2018-11-28T04:07:19.049Z,22.00
2018-11-28T04:08:19.051Z,22.20
2018-11-28T04:09:19.072Z,22.10
2018-11-28T04:10:19.181Z,22.20
2018-11-28T04:11:19.061Z,21.20
2018-11-28T04:12:19.035Z,21.50
2018-11-28T04:13:18.972Z,22.00
2018-11-28T04:14:18.959Z,22.20
2018-11-28T04:15:18.968Z,21.30
2018-11-28T04:16:18.945Z,22.50
2018-11-28T04:17:18.922Z,22.10
2018-11-28T04:18:19.045Z,22.50
2018-11-28T04:19:18.895Z,21.80
2018-11-28T04:20:18.967Z,22.30
2018-11-28T04:21:18.994Z,22.50
2018-11-28T04:22:18.850Z,22.90
2018-11-28T04:23:18.823Z,22.40
2018-11-28T04:24:18.830Z,22.90
2018-11-28T04:25:19.424Z,22.60
2018-11-28T04:26:18.861Z,23.00
2018-11-28T04:27:18.788Z,22.10
2018-11-28T04:28:18.780Z,23.40
2018-11-28T04:29:18.783Z,22.90
2018-11-28T04:30:18.786Z,23.10
2018-11-28T04:31:18.801Z,22.80
2018-11-28T04:32:18.728Z,23.50
2018-11-28T04:33:18.757Z,22.50
2018-11-28T04:34:19.979Z,23.40
2018-11-28T04:35:18.712Z,22.50
2018-11-28T04:36:18.687Z,22.80
2018-11-28T04:37:18.691Z,22.40
2018-11-28T04:38:18.775Z,20.90
2018-11-28T04:39:18.927Z,21.90
2018-11-28T04:40:18.854Z,22.20
2018-11-28T04:41:18.706Z,22.40
2018-11-28T04:42:18.655Z,22.20
2018-11-28T04:43:18.603Z,22.50
2018-11-28T04:44:18.606Z,21.20
2018-11-28T04:45:18.594Z,22.30
2018-11-28T04:46:18.591Z,22.50
2018-11-28T04:47:18.761Z,22.10
2018-11-28T04:48:18.703Z,21.30
2018-11-28T04:49:18.581Z,21.70
2018-11-28T04:50:18.672Z,21.70
2018-11-28T04:51:18.643Z,21.10
2018-11-28T04:52:18.498Z,21.80
2018-11-28T04:53:18.504Z,21.70
2018-11-28T04:54:18.537Z,20.20
2018-11-28T04:55:18.506Z,20.50
2018-11-28T04:56:18.474Z,20.30
2018-11-28T04:57:18.480Z,20.80
2018-11-28T04:58:18.491Z,19.40
2018-11-28T04:59:18.428Z,20.20
2018-11-28T05:00:18.465Z,19.90
2018-11-28T05:01:18.406Z,19.20
2018-11-28T05:02:18.893Z,19.30
2018-11-28T05:03:18.419Z,19.00
2018-11-28T05:04:18.459Z,18.70
2018-11-28T05:05:18.456Z,20.10
2018-11-28T05:06:18.374Z,19.30
2018-11-28T05:07:18.362Z,19.00
2018-11-28T05:08:18.371Z,19.30
2018-11-28T05:09:18.320Z,18.90
2018-11-28T05:10:18.355Z,18.20
2018-11-28T05:11:18.299Z,18.60
2018-11-28T05:12:18.300Z,19.00
2018-11-28T05:13:18.276Z,17.90
2018-11-28T05:14:18.385Z,19.10
2018-11-28T05:15:18.283Z,18.80
2018-11-28T05:16:18.356Z,18.60
2018-11-28T05:17:18.347Z,18.00
2018-11-28T05:18:18.243Z,19.30
2018-11-28T05:19:18.206Z,17.70
2018-11-28T05:20:18.203Z,18.20
2018-11-28T05:21:18.190Z,18.00
2018-11-28T05:22:18.178Z,18.90
2018-11-28T05:23:18.192Z,18.50
2018-11-28T05:24:18.152Z,18.60
2018-11-28T05:25:18.168Z,17.90
2018-11-28T05:26:18.136Z,18.00
2018-11-28T05:27:18.292Z,17.90
2018-11-28T05:28:18.116Z,17.80
2018-11-28T05:29:18.104Z,19.00
2018-11-28T05:30:18.139Z,18.80
2018-11-28T05:31:18.115Z,18.80
2018-11-28T05:32:18.088Z,18.10
2018-11-28T05:33:18.064Z,19.40
2018-11-28T05:34:18.054Z,19.00
2018-11-28T05:35:18.058Z,17.70
2018-11-28T05:36:18.227Z,17.80
2018-11-28T05:37:18.044Z,18.30
2018-11-28T05:38:18.018Z,17.20
2018-11-28T05:39:17.992Z,19.10
2018-11-28T05:40:18.006Z,18.90
2018-11-28T05:41:18.026Z,18.70
2018-11-28T05:42:18.059Z,17.50
2018-11-28T05:43:17.967Z,19.00
2018-11-28T05:44:18.194Z,18.50
2018-11-28T05:45:18.009Z,18.20
2018-11-28T05:46:17.929Z,18.90
2018-11-28T05:47:17.960Z,18.60
2018-11-28T05:48:17.923Z,18.40
2018-11-28T05:49:17.981Z,18.60
2018-11-28T05:50:17.905Z,18.60
2018-11-28T05:51:17.865Z,19.00
2018-11-28T05:52:17.867Z,19.70
2018-11-28T05:53:17.847Z,19.30
2018-11-28T05:54:17.835Z,19.10
2018-11-28T05:55:17.979Z,18.90
2018-11-28T05:56:17.990Z,18.80
2018-11-28T05:57:17.840Z,19.20
2018-11-28T05:58:17.850Z,19.10
2018-11-28T05:59:17.807Z,19.60
2018-11-28T06:00:17.787Z,20.10
2018-11-28T06:01:17.807Z,19.80
2018-11-28T06:02:17.776Z,19.60
2018-11-28T06:03:17.738Z,19.40
2018-11-28T06:04:17.756Z,20.10
2018-11-28T06:05:17.745Z,20.00
2018-11-28T06:06:17.746Z,19.70
2018-11-28T06:07:17.715Z,20.30
2018-11-28T06:08:17.713Z,21.50
2018-11-28T06:09:17.680Z,21.50
2018-11-28T06:10:17.671Z,20.10
2018-11-28T06:11:17.704Z,20.10
2018-11-28T06:12:18.361Z,20.00
2018-11-28T06:13:17.633Z,19.60
2018-11-28T06:14:17.640Z,19.40
2018-11-28T06:15:17.613Z,19.80
2018-11-28T06:16:17.597Z,19.40
2018-11-28T06:17:17.590Z,20.30
2018-11-28T06:18:17.578Z,21.00
2018-11-28T06:19:17.589Z,20.90
2018-11-28T06:20:17.670Z,20.80
2018-11-28T06:21:17.565Z,21.00
2018-11-28T06:22:17.567Z,20.10
2018-11-28T06:23:17.520Z,20.80
2018-11-28T06:24:17.555Z,19.50
2018-11-28T06:25:17.512Z,20.30
2018-11-28T06:26:17.491Z,18.90
2018-11-28T06:27:17.483Z,19.50
2018-11-28T06:28:17.468Z,19.20
2018-11-28T06:29:17.461Z,19.60
2018-11-28T06:30:17.469Z,19.50
2018-11-28T06:31:17.452Z,19.50
2018-11-28T06:32:17.736Z,19.70
2018-11-28T06:33:17.417Z,19.50
2018-11-28T06:34:17.620Z,19.90
2018-11-28T06:35:17.390Z,19.90
2018-11-28T06:36:18.673Z,18.70
2018-11-28T06:37:17.855Z,19.40
2018-11-28T06:38:17.459Z,19.20
2018-11-28T06:39:17.402Z,19.10
2018-11-28T06:40:23.601Z,18.60
2018-11-28T06:41:18.410Z,19.30
2018-11-28T06:42:17.317Z,18.30
2018-11-28T06:43:17.307Z,19.00
2018-11-28T06:44:17.307Z,19.70
2018-11-28T06:45:17.289Z,18.80
2018-11-28T06:46:17.297Z,18.40
2018-11-28T06:47:17.323Z,19.80
2018-11-28T06:48:17.287Z,18.60
2018-11-28T06:49:17.277Z,18.60
2018-11-28T06:50:17.776Z,19.10
2018-11-28T06:51:17.394Z,19.30
2018-11-28T06:52:17.213Z,19.10
2018-11-28T06:53:17.283Z,17.20
2018-11-28T06:54:17.276Z,18.20
2018-11-28T06:55:17.305Z,18.10
2018-11-28T06:56:17.319Z,17.80
2018-11-28T06:57:17.351Z,18.80
2018-11-28T06:58:17.332Z,18.50
2018-11-28T06:59:17.139Z,17.70
2018-11-28T07:00:17.266Z,18.80
2018-11-28T07:01:17.244Z,19.00
2018-11-28T07:02:17.192Z,17.40
2018-11-28T07:03:17.112Z,18.20
2018-11-28T07:04:17.081Z,18.20
2018-11-28T07:05:17.129Z,18.10
2018-11-28T07:06:17.070Z,18.30
2018-11-28T07:07:17.051Z,18.90
2018-11-28T07:08:17.055Z,19.80
2018-11-28T07:09:17.033Z,18.50
2018-11-28T07:10:17.051Z,19.00
2018-11-28T07:11:17.031Z,18.80
2018-11-28T07:12:16.996Z,17.90
2018-11-28T07:13:16.992Z,18.50
2018-11-28T07:14:16.978Z,18.10
2018-11-28T07:15:16.982Z,18.40
2018-11-28T07:16:16.970Z,18.00
2018-11-28T07:17:17.066Z,17.00
2018-11-28T07:18:16.930Z,16.50
2018-11-28T07:19:17.095Z,16.70
2018-11-28T07:20:16.934Z,17.00
2018-11-28T07:21:16.906Z,18.10
2018-11-28T07:22:16.884Z,17.20
2018-11-28T07:23:16.879Z,16.40
2018-11-28T07:24:16.958Z,16.60
2018-11-28T07:25:17.095Z,16.70
2018-11-28T07:26:17.098Z,16.20
2018-11-28T07:27:16.919Z,16.50
2018-11-28T07:28:16.998Z,16.80
2018-11-28T07:29:16.886Z,15.50
2018-11-28T07:30:17.548Z,17.00
2018-11-28T07:31:16.811Z,15.90
2018-11-28T07:32:17.023Z,16.60
2018-11-28T07:33:16.848Z,16.00
2018-11-28T07:34:16.808Z,16.80
2018-11-28T07:35:16.829Z,16.70
2018-11-28T07:36:16.774Z,16.40
2018-11-28T07:37:16.764Z,16.90
2018-11-28T07:38:16.859Z,15.80
2018-11-28T07:39:16.710Z,16.30
2018-11-28T07:40:18.084Z,17.20
2018-11-28T07:41:16.771Z,16.60
2018-11-28T07:42:16.812Z,17.00
2018-11-28T07:43:16.663Z,16.00
2018-11-28T07:44:16.655Z,16.70
2018-11-28T07:45:16.647Z,15.70
2018-11-28T07:46:16.859Z,16.60
2018-11-28T07:47:17.275Z,16.60
2018-11-28T07:48:16.703Z,17.00
2018-11-28T07:49:16.595Z,15.90
2018-11-28T07:50:16.589Z,17.50
2018-11-28T07:51:16.599Z,16.80
2018-11-28T07:52:16.609Z,16.30
2018-11-28T07:53:16.571Z,17.00
2018-11-28T07:54:16.541Z,16.70
2018-11-28T07:55:16.545Z,16.40
2018-11-28T07:56:16.545Z,16.90
2018-11-28T07:57:16.778Z,17.10
2018-11-28T07:58:16.568Z,16.60
2018-11-28T07:59:16.660Z,16.90
2018-11-28T08:00:16.538Z,16.90
2018-11-28T08:01:16.577Z,16.30
2018-11-28T08:02:16.453Z,16.30
2018-11-28T08:03:16.446Z,16.00
2018-11-28T08:04:16.436Z,16.40
2018-11-28T08:05:16.437Z,17.10
2018-11-28T08:06:16.459Z,17.20
2018-11-28T08:07:16.457Z,16.90
2018-11-28T08:08:16.396Z,16.40
2018-11-28T08:09:16.711Z,17.20
2018-11-28T08:10:16.430Z,17.40
2018-11-28T08:11:16.507Z,17.70
2018-11-28T08:12:17.484Z,16.60
2018-11-28T08:13:16.649Z,16.20
2018-11-28T08:14:17.038Z,16.60
2018-11-28T08:15:17.053Z,16.20
2018-11-28T08:16:16.786Z,17.20
2018-11-28T08:17:16.336Z,16.40
2018-11-28T08:18:16.337Z,16.40
2018-11-28T08:19:16.321Z,16.50
2018-11-28T08:20:16.429Z,17.30
2018-11-28T08:21:16.605Z,16.60
2018-11-28T08:22:17.880Z,16.40
2018-11-28T08:23:16.449Z,16.40
2018-11-28T08:24:17.449Z,16.50
2018-11-28T08:25:16.240Z,16.50
2018-11-28T08:26:16.274Z,17.20
2018-11-28T08:27:17.518Z,16.70
2018-11-28T08:28:16.286Z,16.10
2018-11-28T08:29:17.205Z,16.90
2018-11-28T08:30:16.158Z,16.70
2018-11-28T08:31:16.183Z,16.40
2018-11-28T08:32:16.134Z,16.10
2018-11-28T08:33:16.115Z,16.40
2018-11-28T08:34:16.107Z,16.00
2018-11-28T08:35:16.135Z,16.40
2018-11-28T08:36:16.143Z,15.50
2018-11-28T08:37:16.109Z,15.80
2018-11-28T08:38:16.110Z,15.20
2018-11-28T08:39:16.055Z,15.30
2018-11-28T08:40:16.051Z,16.30
2018-11-28T08:41:16.061Z,16.00
2018-11-28T08:42:16.075Z,16.10
2018-11-28T08:43:16.010Z,16.40
2018-11-28T08:44:16.146Z,15.70
2018-11-28T08:45:16.042Z,16.10
2018-11-28T08:46:15.993Z,15.40
2018-11-28T08:47:16.201Z,16.30
2018-11-28T08:48:15.960Z,16.00
2018-11-28T08:49:16.022Z,16.00
2018-11-28T08:50:17.073Z,16.40
2018-11-28T08:51:15.945Z,16.10
2018-11-28T08:52:16.385Z,16.00
2018-11-28T08:53:15.922Z,16.70
2018-11-28T08:54:15.894Z,15.80
2018-11-28T08:55:15.882Z,16.10
2018-11-28T08:56:15.928Z,16.80
2018-11-28T08:57:16.040Z,16.20
2018-11-28T08:58:15.847Z,15.90
2018-11-28T08:59:15.837Z,16.10
2018-11-28T09:00:15.840Z,16.00
2018-11-28T09:01:15.824Z,16.60
2018-11-28T09:02:16.133Z,16.50
2018-11-28T09:03:15.797Z,15.80
2018-11-28T09:04:15.785Z,16.20
2018-11-28T09:05:15.774Z,16.80
2018-11-28T09:06:15.760Z,16.40
2018-11-28T09:07:15.751Z,16.20
2018-11-28T09:08:15.760Z,15.20
2018-11-28T09:09:15.749Z,16.10
2018-11-28T09:10:15.758Z,15.70
2018-11-28T09:11:15.729Z,14.80
2018-11-28T09:12:15.760Z,15.60
2018-11-28T09:13:15.717Z,15.20
2018-11-28T09:14:15.680Z,15.10
2018-11-28T09:15:15.698Z,14.80
2018-11-28T09:16:15.811Z,14.80
2018-11-28T09:17:15.690Z,14.80
2018-11-28T09:18:15.632Z,15.10
2018-11-28T09:19:15.624Z,15.80
2018-11-28T09:20:15.709Z,15.90
2018-11-28T09:21:15.644Z,15.40
2018-11-28T09:22:15.647Z,15.70
2018-11-28T09:23:15.996Z,15.20
2018-11-28T09:24:15.624Z,15.80
2018-11-28T09:25:15.561Z,15.20
2018-11-28T09:26:15.558Z,14.70
2018-11-28T09:27:15.632Z,15.30
2018-11-28T09:28:15.599Z,15.20
2018-11-28T09:29:15.736Z,15.60
2018-11-28T09:30:15.505Z,15.60
2018-11-28T09:31:15.516Z,14.90
2018-11-28T09:32:15.516Z,14.50
2018-11-28T09:33:15.926Z,14.90
2018-11-28T09:34:15.600Z,14.40
2018-11-28T09:35:15.643Z,15.40
2018-11-28T09:36:15.453Z,14.40
2018-11-28T09:37:15.451Z,15.10
2018-11-28T09:38:15.587Z,14.60
2018-11-28T09:39:17.519Z,15.10
2018-11-28T09:40:15.447Z,14.60
2018-11-28T09:41:15.489Z,14.70
2018-11-28T09:42:15.434Z,14.80
2018-11-28T09:43:15.362Z,14.30
2018-11-28T09:44:15.402Z,14.40
2018-11-28T09:45:15.531Z,13.70
2018-11-28T09:46:15.414Z,14.60
2018-11-28T09:47:27.838Z,14.20
2018-11-28T09:48:15.305Z,14.00
2018-11-28T09:49:15.664Z,14.20
2018-11-28T09:50:15.298Z,14.80
2018-11-28T09:51:15.292Z,14.50
2018-11-28T09:52:15.285Z,14.20
2018-11-28T09:53:15.535Z,13.80
2018-11-28T09:54:15.240Z,14.90
2018-11-28T09:55:15.228Z,14.90
2018-11-28T09:56:15.226Z,13.80
2018-11-28T09:57:16.310Z,13.80
2018-11-28T09:58:15.321Z,13.70
2018-11-28T09:59:15.302Z,13.60
